Terminal Aerodrome Forecast
Issued by NWS

Home | Current Version | Previous Version | Text Only | Print | Product List | Glossary On
Versions: 1 2 3 4 5 6 7 8 9 10 11 12 13 14 15 16 17 18 19 20 21 22 23
000
FTUS43 KDVN 261120
TAFBRL
TAF
KBRL 261120Z 2612/2712 16006KT P6SM VCSH BKN100
     FM261400 14006KT P6SM VCTS BKN040CB
      TEMPO 2614/2618 3SM TSRA BR BKN030CB
     FM261900 16007KT P6SM SCT050=

USA.gov is the U.S. government's official web portal to all federal, state and local government web resources and services.